CheckWX is a tool to help pilots better visualize weather data.  It is not intended as a substitute for an official pre-flight weather briefing.

11:39:03 UTC

KGKY TAF
Arlington Municipal Airport
Arlington, Texas, USA
KGKY 031123Z 0312/0412 14006KT P6SM -RA OVC010 TEMPO 0312/0314 2SM -DZ OVC007 FM031400 32014KT P6SM -SHRA VCTS BKN008 OVC012CB FM031900 35017KT P6SM OVC015 FM040100 35011KT P6SM OVC025 FM040900 35011KT P6SM OVC009

Apr-3@
12:00 UTC

Apr-3 @ 12:00 UTC

Apr-3@
14:00 UTC

Apr-3 @ 14:00 UTC

TAF KGKY 031123Z 0312/0412 14006KT P6SM -RA OVC010

Expired

Wind
  • 140° at 6 KTS
Conditions
Light Rain
Cloud Levels
  • Overcast at 1,000' AGL

Apr-3@
12:00 UTC

Apr-3 @ 12:00 UTC

Apr-3@
14:00 UTC

Apr-3 @ 14:00 UTC

TEMPO 0312/0314 2SM -DZ OVC007

Expired

Conditions
Light Drizzle
Cloud Levels
  • Overcast at 700' AGL

Apr-3@
14:00 UTC

Apr-3 @ 14:00 UTC

Apr-3@
19:00 UTC

Apr-3 @ 19:00 UTC

FM031400 32014KT P6SM -SHRA VCTS BKN008 OVC012CB

Expired

Wind
  • 320° at 14 KTS
Conditions
Light Showers, Rain, Area Thunderstorm
Cloud Levels
  • Broken at 800' AGL
  • Overcast at 1,200' AGL

Apr-3@
19:00 UTC

Apr-3 @ 19:00 UTC

Apr-4@
01:00 UTC

Apr-4 @ 01:00 UTC

FM031900 35017KT P6SM OVC015

Expired

Wind
  • 350° at 17 KTS
Cloud Levels
  • Overcast at 1,500' AGL

Apr-4@
01:00 UTC

Apr-4 @ 01:00 UTC

Apr-4@
09:00 UTC

Apr-4 @ 09:00 UTC

FM040100 35011KT P6SM OVC025

Expired

Wind
  • 350° at 11 KTS
Cloud Levels
  • Overcast at 2,500' AGL

Apr-4@
09:00 UTC

Apr-4 @ 09:00 UTC

Apr-4@
12:00 UTC

Apr-4 @ 12:00 UTC

FM040900 35011KT P6SM OVC009

From

From Standard forecast or significant change

Wind
  • 350° at 11 KTS
Cloud Levels
  • Overcast at 900' AGL